Time;durP1;ratioP1;P1;durP2;ratioP2;P2;SDS_P1;SDS_P2;PMS_P1;PMS_P2;Temp;Humidity;BMP_temperature;BMP_pressure;BME280_temperature;BME280_humidity;BME280_pressure;Samples;Min_cycle;Max_cycle;Signal;HPM_P1;HPM_P2
2021/11/01 00:00:44;;;;;;;10.87;2.50;;;;;8.50;99382.00;;;;10550324;28;20236;-77
2021/11/01 00:05:47;;;;;;;6.87;1.80;;;;;8.50;99385.00;;;;10533871;28;20212;-77
2021/11/01 00:10:49;;;;;;;9.53;2.00;;;;;8.50;99388.00;;;;10550267;28;20241;-77
2021/11/01 00:15:52;;;;;;;13.23;2.40;;;;;8.50;99385.00;;;;10517417;28;20188;-77
2021/11/01 00:20:54;;;;;;;12.27;2.50;;;;;8.50;99380.00;;;;10550277;28;20304;-77
2021/11/01 00:25:56;;;;;;;7.97;2.03;;;;;8.50;99373.00;;;;10550468;28;20188;-77
2021/11/01 00:30:58;;;;;;;13.60;2.43;;;;;8.50;99367.00;;;;10516845;28;20712;-77
2021/11/01 00:36:02;;;;;;;7.77;2.20;;;;;8.50;99369.00;;;;10549650;28;20199;-77
2021/11/01 00:41:05;;;;;;;12.10;2.20;;;;;8.50;99369.00;;;;10549321;28;20689;-78
2021/11/01 00:46:08;;;;;;;10.10;2.37;;;;;8.50;99362.00;;;;10533243;28;20215;-78
2021/11/01 00:51:10;;;;;;;14.40;2.70;;;;;8.40;99357.00;;;;10515845;28;20195;-78
2021/11/01 00:56:12;;;;;;;10.63;2.47;;;;;8.40;99351.00;;;;10549211;28;20194;-77
2021/11/01 01:01:15;;;;;;;17.10;3.10;;;;;8.40;99353.00;;;;10532595;28;20269;-77
2021/11/01 01:06:19;;;;;;;8.73;2.60;;;;;8.40;99342.00;;;;10515980;28;20200;-78
2021/11/01 01:11:21;;;;;;;11.63;2.50;;;;;8.50;99332.00;;;;10515866;28;20199;-78
2021/11/01 01:16:26;;;;;;;9.70;2.60;;;;;8.50;99335.00;;;;10548725;28;20188;-78
2021/11/01 01:27:09;;;;;;;10.63;2.97;;;;;8.60;99323.00;;;;10314771;28;20661;-77
2021/11/01 01:32:11;;;;;;;18.00;3.03;;;;;8.60;99325.00;;;;10473649;28;20200;-78
2021/11/01 01:37:13;;;;;;;10.60;2.67;;;;;8.60;99318.00;;;;10506421;28;20590;-78
2021/11/01 01:42:15;;;;;;;13.50;3.33;;;;;8.60;99307.00;;;;10473022;28;20250;-77
2021/11/01 01:47:17;;;;;;;13.03;2.70;;;;;8.60;99313.00;;;;10473403;28;20213;-78
2021/11/01 01:52:20;;;;;;;12.43;2.50;;;;;8.60;99312.00;;;;10522625;28;20250;-78
2021/11/01 01:57:22;;;;;;;18.73;3.43;;;;;8.60;99297.00;;;;10473254;28;20246;-78
2021/11/01 02:02:25;;;;;;;8.30;2.10;;;;;8.60;99312.00;;;;10505687;28;20238;-78
2021/11/01 02:07:38;;;;;;;11.20;2.43;;;;;8.60;99311.00;;;;10521868;28;20216;-78
2021/11/01 02:12:55;;;;;;;9.90;2.00;;;;;8.60;99306.00;;;;10505377;28;20181;-78
2021/11/01 02:17:57;;;;;;;10.00;2.70;;;;;8.50;99290.00;;;;10505523;28;20201;-78
2021/11/01 02:23:13;;;;;;;9.60;2.63;;;;;8.40;99294.00;;;;10505457;28;20212;-78
2021/11/01 02:28:19;;;;;;;11.13;2.10;;;;;8.40;99291.00;;;;10529519;28;20679;-78
2021/11/01 02:33:23;;;;;;;13.27;2.63;;;;;8.40;99294.00;;;;10495881;28;20181;-77
2021/11/01 02:38:28;;;;;;;13.80;3.23;;;;;8.40;99281.00;;;;10512732;28;20189;-77
2021/11/01 02:43:30;;;;;;;17.83;2.00;;;;;8.40;99286.00;;;;10495531;28;20213;-78
2021/11/01 02:48:32;;;;;;;14.77;2.57;;;;;8.40;99292.00;;;;10511156;28;20205;-77
2021/11/01 02:53:34;;;;;;;10.10;2.43;;;;;8.30;99305.00;;;;10528312;28;20184;-77
2021/11/01 02:58:41;;;;;;;11.63;2.47;;;;;8.30;99304.00;;;;10511248;28;20185;-77
2021/11/01 03:03:43;;;;;;;10.97;1.87;;;;;8.20;99296.00;;;;10478231;28;20248;-77
2021/11/01 03:08:46;;;;;;;11.07;2.73;;;;;8.10;99307.00;;;;10494524;28;20192;-78
2021/11/01 03:13:49;;;;;;;13.50;2.43;;;;;8.10;99296.00;;;;10510196;28;20544;-77
2021/11/01 03:19:10;;;;;;;13.30;2.57;;;;;8.10;99295.00;;;;10510572;28;20268;-77
2021/11/01 03:24:17;;;;;;;6.60;1.90;;;;;8.10;99309.00;;;;10567293;28;20700;-78
2021/11/01 03:29:22;;;;;;;10.73;2.70;;;;;8.10;99299.00;;;;10552758;28;20547;-77
2021/11/01 03:34:24;;;;;;;12.73;2.43;;;;;8.10;99315.00;;;;10509959;28;20193;-77
2021/11/01 03:39:27;;;;;;;16.53;2.50;;;;;8.10;99310.00;;;;10509240;28;20217;-78
2021/11/01 03:44:32;;;;;;;10.33;2.70;;;;;8.20;99308.00;;;;10509451;28;20201;-77
2021/11/01 03:49:38;;;;;;;13.33;2.43;;;;;8.20;99311.00;;;;10526652;28;20209;-77
2021/11/01 03:54:40;;;;;;;12.17;3.07;;;;;8.20;99294.00;;;;10509827;28;20197;-78
2021/11/01 03:59:43;;;;;;;12.63;2.50;;;;;8.30;99304.00;;;;10524823;28;20226;-78
2021/11/01 04:04:47;;;;;;;6.33;1.97;;;;;8.30;99297.00;;;;10533856;28;20200;-78
2021/11/01 04:09:49;;;;;;;12.10;2.17;;;;;8.30;99304.00;;;;10550460;28;20237;-78
2021/11/01 04:14:56;;;;;;;14.40;2.70;;;;;8.30;99304.00;;;;10533718;28;20306;-77
2021/11/01 04:20:10;;;;;;;20.93;3.27;;;;;8.30;99287.00;;;;10533553;28;20277;-77
2021/11/01 04:25:13;;;;;;;18.97;3.43;;;;;8.30;99298.00;;;;10532868;28;20189;-77
2021/11/01 04:30:15;;;;;;;13.10;2.40;;;;;8.30;99310.00;;;;10532652;28;20200;-77
2021/11/01 04:35:25;;;;;;;10.57;2.40;;;;;8.20;99309.00;;;;10533273;28;20249;-78
2021/11/01 04:56:20;;;;;;;14.03;2.57;;;;;8.30;99300.00;;;;10548912;28;20252;-77
2021/11/01 05:01:35;;;;;;;16.03;3.00;;;;;8.20;99281.00;;;;10506858;28;20262;-77
2021/11/01 05:06:42;;;;;;;12.57;2.43;;;;;8.20;99283.00;;;;10519779;28;20275;-77
2021/11/01 05:22:37;;;;;;;11.93;2.80;;;;;8.20;99323.00;;;;10564946;28;20574;-77
2021/11/01 05:27:53;;;;;;;12.13;2.17;;;;;8.20;99323.00;;;;10530768;28;20192;-77
2021/11/01 05:33:03;;;;;;;11.13;2.93;;;;;8.20;99331.00;;;;10489545;28;20669;-77
2021/11/01 05:38:06;;;;;;;8.13;1.97;;;;;8.20;99339.00;;;;10489634;28;20197;-77
2021/11/01 05:43:08;;;;;;;19.17;2.70;;;;;8.10;99331.00;;;;10489557;28;20266;-77
2021/11/01 05:48:10;;;;;;;8.97;2.23;;;;;8.10;99337.00;;;;10488772;28;20748;-77
2021/11/01 05:53:13;;;;;;;15.50;2.40;;;;;8.20;99339.00;;;;10488704;28;20196;-77
2021/11/01 06:08:57;;;;;;;10.77;2.07;;;;;8.20;99354.00;;;;10554713;28;20678;-77
2021/11/01 06:13:59;;;;;;;11.20;2.70;;;;;8.20;99359.00;;;;10555006;28;20176;-77
2021/11/01 06:19:06;;;;;;;12.23;2.73;;;;;8.20;99389.00;;;;10538820;28;20223;-77
2021/11/01 06:24:23;;;;;;;12.80;2.30;;;;;8.20;99391.00;;;;10537707;28;20255;-77
2021/11/01 06:29:29;;;;;;;15.80;2.60;;;;;8.20;99395.00;;;;10537901;28;20187;-77
2021/11/01 06:40:24;;;;;;;16.03;2.30;;;;;8.40;99388.00;;;;10553964;28;20242;-77
2021/11/01 06:45:21;;;;;;;12.13;2.70;;;;;8.40;99395.00;;;;10550695;28;20188;-77
2021/11/01 07:17:05;;;;;;;13.07;3.40;;;;;8.80;99436.00;;;;10552922;28;20245;-77
2021/11/01 08:21:12;;;;;;;8.33;1.77;;;;;10.40;99490.00;;;;10524635;28;20256;-77
2021/11/01 08:47:38;;;;;;;8.07;2.60;;;;;11.10;99475.00;;;;10549614;28;20211;-77
2021/11/01 09:41:07;;;;;;;12.10;2.47;;;;;12.40;99474.00;;;;10541513;28;20212;-78
2021/11/01 09:46:10;;;;;;;6.30;2.10;;;;;12.50;99461.00;;;;10573046;28;20212;-78
2021/11/01 09:51:12;;;;;;;7.47;1.93;;;;;12.70;99474.00;;;;10556148;28;20192;-78
2021/11/01 09:56:20;;;;;;;8.97;1.80;;;;;12.50;99477.00;;;;10555559;28;20196;-78
2021/11/01 10:01:22;;;;;;;5.50;2.13;;;;;12.50;99478.00;;;;10526637;28;20217;-78
2021/11/01 10:06:27;;;;;;;7.00;2.47;;;;;13.40;99482.00;;;;10525660;28;20232;-78
2021/11/01 10:11:34;;;;;;;13.70;2.37;;;;;13.50;99485.00;;;;10527557;28;20602;-78
2021/11/01 10:22:03;;;;;;;9.33;2.30;;;;;14.00;99494.00;;;;10496910;28;20235;-78
2021/11/01 10:27:11;;;;;;;8.93;1.83;;;;;13.70;99485.00;;;;10529351;28;20238;-78
2021/11/01 10:32:14;;;;;;;8.67;1.80;;;;;13.90;99492.00;;;;10549417;28;20224;-78
2021/11/01 10:37:15;;;;;;;9.10;2.43;;;;;13.70;99486.00;;;;10537526;28;20695;-78
2021/11/01 10:42:28;;;;;;;5.07;2.00;;;;;13.70;99487.00;;;;10554794;28;20204;-78
2021/11/01 10:56:28;;;;;;;7.17;2.47;;;;;13.80;99485.00;;;;10552458;28;20211;-78
2021/11/01 10:59:07;;;;;;;6.27;2.30;;;;;14.20;99482.00;;;;10537398;28;20199;-78
2021/11/01 11:14:57;;;;;;;10.80;2.43;;;;;13.90;99464.00;;;;10553205;28;20241;-78
2021/11/01 11:20:24;;;;;;;9.07;2.00;;;;;13.40;99464.00;;;;10520033;28;20393;-78
2021/11/01 11:47:15;;;;;;;7.10;1.90;;;;;14.10;99453.00;;;;10568765;28;20216;-77
2021/11/01 11:52:06;;;;;;;6.50;1.67;;;;;14.10;99443.00;;;;10581327;28;20187;-78
2021/11/01 11:57:33;;;;;;;5.47;1.60;;;;;15.00;99443.00;;;;10517595;28;20717;-78
2021/11/01 12:02:41;;;;;;;9.70;1.77;;;;;15.00;99438.00;;;;10506269;28;20228;-78
2021/11/01 12:08:08;;;;;;;5.80;1.87;;;;;14.80;99437.00;;;;10501508;28;20623;-78
2021/11/01 12:18:26;;;;;;;4.10;1.60;;;;;15.10;99406.00;;;;10533101;28;20250;-78
2021/11/01 12:23:39;;;;;;;6.80;1.80;;;;;15.90;99408.00;;;;10549312;28;20220;-78
2021/11/01 12:28:59;;;;;;;4.67;1.50;;;;;15.30;99409.00;;;;10566748;28;20190;-77
2021/11/01 12:34:10;;;;;;;5.93;1.60;;;;;15.40;99410.00;;;;10549219;28;20184;-78
2021/11/01 12:39:20;;;;;;;9.50;1.90;;;;;15.50;99411.00;;;;10549010;28;20271;-78
2021/11/01 13:00:08;;;;;;;6.57;1.30;;;;;14.80;99408.00;;;;10548989;28;20188;-78
2021/11/01 13:05:21;;;;;;;5.50;1.48;;;;;15.20;99404.00;;;;10548070;28;20224;-78
2021/11/01 13:10:38;;;;;;;8.40;1.50;;;;;15.30;99410.00;;;;10531026;28;20241;-78
2021/11/01 13:17:52;;;;;;;10.00;2.07;;;;;15.00;99409.00;;;;10531647;28;20677;-78
2021/11/01 13:21:32;;;;;;;7.23;1.50;;;;;14.60;99397.00;;;;10523277;28;20739;-78
2021/11/01 13:37:36;;;;;;;6.70;1.47;;;;;14.10;99394.00;;;;10548032;28;20188;-78
2021/11/01 13:42:37;;;;;;;5.37;1.30;;;;;13.50;99386.00;;;;10547154;28;20231;-77
2021/11/01 13:47:54;;;;;;;3.20;1.30;;;;;13.60;99390.00;;;;10530408;28;20208;-78
2021/11/01 13:53:15;;;;;;;3.13;0.90;;;;;13.60;99379.00;;;;10530333;28;20184;-78
2021/11/01 13:58:34;;;;;;;6.03;1.50;;;;;14.50;99381.00;;;;10527389;28;20228;-78
2021/11/01 14:35:50;;;;;;;4.67;1.50;;;;;14.90;99368.00;;;;10537482;28;20248;-78
2021/11/01 15:07:45;;;;;;;4.23;1.60;;;;;13.60;99349.00;;;;10535647;28;20278;-78
2021/11/01 15:18:13;;;;;;;2.80;1.40;;;;;12.80;99349.00;;;;10552713;28;20226;-78
2021/11/01 16:21:19;;;;;;;4.37;2.10;;;;;10.50;99388.00;;;;10549740;28;20261;-78
2021/11/01 16:26:25;;;;;;;7.10;2.10;;;;;10.60;99398.00;;;;10532829;28;20180;-78
2021/11/01 16:41:57;;;;;;;4.23;0.80;;;;;9.70;99400.00;;;;10530036;28;20209;-78
2021/11/01 16:47:01;;;;;;;2.07;0.70;;;;;9.40;99366.00;;;;10532316;28;20208;-78
2021/11/01 16:52:16;;;;;;;1.07;0.73;;;;;9.30;99355.00;;;;10531220;28;20278;-78
2021/11/01 16:57:23;;;;;;;1.13;0.70;;;;;9.20;99344.00;;;;10531767;28;20332;-78
2021/11/01 18:54:35;;;;;;;3.93;1.50;;;;;8.50;99430.00;;;;10553122;28;20199;-77
2021/11/01 18:59:39;;;;;;;2.40;1.83;;;;;8.40;99441.00;;;;10569471;28;20204;-77
2021/11/01 19:04:58;;;;;;;5.00;2.00;;;;;8.40;99435.00;;;;10551512;28;20212;-77
2021/11/01 20:04:18;;;;;;;12.47;6.80;;;;;7.40;99451.00;;;;10533626;28;20220;-77
2021/11/01 20:15:13;;;;;;;12.30;5.50;;;;;7.20;99468.00;;;;10549741;28;20237;-78
2021/11/01 21:25:13;;;;;;;12.67;6.60;;;;;6.50;99484.00;;;;10547156;28;20229;-77
2021/11/01 21:30:17;;;;;;;12.33;6.10;;;;;6.50;99479.00;;;;10546971;28;20248;-77
2021/11/01 21:35:19;;;;;;;15.17;6.40;;;;;6.40;99489.00;;;;10530236;28;20212;-77
2021/11/01 21:40:22;;;;;;;14.03;5.67;;;;;6.40;99495.00;;;;10514016;28;20188;-77
2021/11/01 21:45:24;;;;;;;9.13;4.67;;;;;6.40;99485.00;;;;10513528;28;20220;-78
2021/11/01 21:50:26;;;;;;;8.37;4.47;;;;;6.40;99480.00;;;;10513483;28;20266;-77
2021/11/01 21:55:36;;;;;;;7.90;3.40;;;;;6.40;99477.00;;;;10531448;28;20245;-78
2021/11/01 22:48:35;;;;;;;5.97;3.30;;;;;6.30;99461.00;;;;10536598;28;20208;-78
2021/11/01 22:58:58;;;;;;;5.73;2.43;;;;;6.10;99459.00;;;;10569506;28;20220;-78
2021/11/01 23:04:22;;;;;;;7.37;2.90;;;;;6.10;99446.00;;;;10536059;28;20219;-78
2021/11/01 23:36:09;;;;;;;5.83;2.87;;;;;6.20;99445.00;;;;10551385;28;20282;-78
2021/11/01 23:41:11;;;;;;;6.00;2.37;;;;;6.30;99450.00;;;;10534585;28;20188;-78
2021/11/01 23:46:15;;;;;;;2.83;2.30;;;;;6.30;99448.00;;;;10534078;28;20257;-78
2021/11/01 23:51:28;;;;;;;6.10;2.70;;;;;6.30;99445.00;;;;10533207;28;20195;-78
2021/11/01 23:56:30;;;;;;;4.80;2.60;;;;;6.30;99433.00;;;;10533525;28;20184;-81
